createdAt,value
2022-11-28T00:00:28.020Z,4.20
2022-11-28T00:04:09.056Z,4.24
2022-11-28T00:08:36.214Z,4.21
2022-11-28T00:12:09.548Z,4.18
2022-11-28T00:16:08.037Z,4.11
2022-11-28T00:19:59.358Z,4.22
2022-11-28T00:24:42.179Z,4.16
2022-11-28T00:28:57.635Z,4.24
2022-11-28T00:32:58.926Z,4.25
2022-11-28T00:37:27.430Z,4.35
2022-11-28T00:41:29.153Z,4.27
2022-11-28T00:45:22.155Z,4.30
2022-11-28T00:49:07.047Z,4.10
2022-11-28T00:53:32.295Z,4.15
2022-11-28T00:57:26.181Z,4.14
2022-11-28T01:01:45.730Z,4.14
2022-11-28T01:05:46.094Z,4.11
2022-11-28T01:09:58.092Z,4.16
2022-11-28T01:14:10.073Z,4.17
2022-11-28T01:18:28.387Z,4.11
2022-11-28T01:26:52.884Z,4.35
2022-11-28T01:30:49.255Z,4.27
2022-11-28T01:34:41.540Z,4.22
2022-11-28T01:39:00.263Z,4.15
2022-11-28T01:42:57.829Z,4.26
2022-11-28T01:47:07.377Z,4.14
2022-11-28T01:51:22.407Z,4.19
2022-11-28T01:55:31.098Z,4.17
2022-11-28T01:59:23.966Z,4.09
2022-11-28T02:03:27.732Z,4.23
2022-11-28T02:07:18.822Z,4.19
2022-11-28T02:11:09.808Z,4.17
2022-11-28T02:15:30.000Z,4.22
2022-11-28T02:19:26.050Z,4.15
2022-11-28T02:24:00.254Z,4.15
2022-11-28T02:28:22.021Z,4.04
2022-11-28T02:32:30.900Z,4.09
2022-11-28T02:36:52.145Z,4.08
2022-11-28T02:41:29.046Z,4.01
2022-11-28T02:45:30.768Z,3.93
2022-11-28T02:50:11.993Z,4.03
2022-11-28T02:54:30.047Z,3.94
2022-11-28T02:58:20.992Z,3.94
2022-11-28T03:02:35.069Z,3.92
2022-11-28T03:06:43.039Z,3.89
2022-11-28T03:11:09.134Z,3.99
2022-11-28T03:15:02.136Z,4.00
2022-11-28T03:19:39.634Z,4.01
2022-11-28T03:23:55.439Z,4.02
2022-11-28T03:28:09.227Z,3.93
2022-11-28T03:32:28.064Z,4.14
2022-11-28T03:36:36.240Z,3.99
2022-11-28T03:40:56.191Z,4.06
2022-11-28T03:44:41.340Z,4.07
2022-11-28T03:49:12.339Z,4.08
2022-11-28T03:52:45.385Z,3.97
2022-11-28T03:56:55.386Z,3.94
2022-11-28T04:01:13.240Z,4.03
2022-11-28T04:05:31.946Z,3.95
2022-11-28T04:09:14.537Z,3.96
2022-11-28T04:13:20.955Z,3.92
2022-11-28T04:17:15.081Z,3.94
2022-11-28T04:21:09.898Z,3.89
2022-11-28T04:25:10.485Z,3.98
2022-11-28T04:29:00.596Z,4.00
2022-11-28T04:33:01.582Z,3.91
2022-11-28T04:37:16.449Z,3.85
2022-11-28T04:41:11.487Z,3.75
2022-11-28T04:45:35.170Z,3.84
2022-11-28T04:49:14.744Z,3.86
2022-11-28T04:53:27.485Z,3.88
2022-11-28T04:57:03.270Z,3.77
2022-11-28T05:01:27.496Z,3.79
2022-11-28T05:05:01.810Z,3.91
2022-11-28T05:08:52.413Z,3.75
2022-11-28T05:12:52.307Z,3.78
2022-11-28T05:16:52.277Z,3.64
2022-11-28T05:21:07.007Z,3.76
2022-11-28T05:24:46.260Z,3.62
2022-11-28T05:29:05.135Z,3.64
2022-11-28T05:32:36.447Z,3.40
2022-11-28T05:36:26.605Z,3.62
2022-11-28T05:40:01.280Z,3.60
2022-11-28T05:43:39.176Z,3.66
2022-11-28T05:47:37.932Z,3.56
2022-11-28T05:51:50.392Z,3.69
2022-11-28T05:55:27.477Z,3.65
2022-11-28T05:59:11.548Z,3.66
2022-11-28T06:03:00.972Z,3.68
2022-11-28T06:06:46.422Z,3.63
2022-11-28T06:10:30.059Z,3.64
2022-11-28T06:14:06.432Z,3.68
2022-11-28T06:21:27.987Z,3.64
2022-11-28T06:25:02.167Z,3.68
2022-11-28T06:28:42.345Z,3.71
2022-11-28T06:32:15.526Z,3.67
2022-11-28T06:39:33.876Z,3.72
2022-11-28T06:43:14.702Z,3.62
2022-11-28T06:46:53.364Z,3.87
2022-11-28T06:50:28.132Z,3.74
2022-11-28T06:57:40.817Z,3.76
2022-11-28T07:01:25.464Z,3.84
2022-11-28T07:05:08.981Z,4.00
2022-11-28T07:08:45.736Z,3.99
2022-11-28T07:12:22.708Z,3.94
2022-11-28T07:16:28.383Z,4.12
2022-11-28T07:20:38.031Z,4.12
2022-11-28T07:24:19.174Z,4.03
2022-11-28T07:28:23.256Z,4.02
2022-11-28T07:36:31.844Z,3.99
2022-11-28T07:57:16.295Z,4.21
2022-11-28T09:01:27.696Z,4.64
2022-11-28T09:13:08.390Z,4.39
2022-11-28T09:17:05.191Z,4.42
2022-11-28T09:20:44.025Z,4.41
2022-11-28T09:24:27.816Z,4.69
2022-11-28T09:28:00.965Z,4.68
2022-11-28T09:31:47.216Z,4.58
2022-11-28T09:35:16.553Z,4.63
2022-11-28T09:39:05.256Z,4.84
2022-11-28T09:42:44.638Z,4.89
2022-11-28T09:46:34.896Z,4.97
2022-11-28T09:50:16.917Z,4.89
2022-11-28T09:58:09.602Z,4.82
2022-11-28T10:01:53.511Z,4.71
2022-11-28T10:09:45.470Z,4.74
2022-11-28T10:13:59.816Z,4.58
2022-11-28T10:17:57.397Z,4.85
2022-11-28T10:30:07.844Z,4.88
2022-11-28T10:33:54.611Z,4.90
2022-11-28T10:37:40.408Z,5.15
2022-11-28T10:41:39.119Z,5.05
2022-11-28T10:49:15.751Z,5.22
2022-11-28T10:53:08.444Z,5.37
2022-11-28T10:57:09.991Z,5.53
2022-11-28T11:00:53.622Z,5.16
2022-11-28T11:04:33.684Z,5.59
2022-11-28T11:08:32.870Z,5.51
2022-11-28T11:12:35.083Z,5.64
2022-11-28T11:16:22.497Z,5.57
2022-11-28T11:19:39.765Z,5.43
2022-11-28T11:23:14.423Z,5.43
2022-11-28T11:26:39.520Z,5.33
2022-11-28T11:30:33.994Z,5.25
2022-11-28T11:34:32.317Z,5.22
2022-11-28T11:42:20.733Z,5.09
2022-11-28T11:45:52.591Z,4.87
2022-11-28T11:49:39.951Z,5.13
2022-11-28T11:53:57.761Z,4.96
2022-11-28T11:57:46.272Z,5.13
2022-11-28T12:01:41.111Z,5.01
2022-11-28T12:05:59.072Z,5.00
2022-11-28T12:09:34.419Z,5.19
2022-11-28T12:13:23.067Z,4.93
2022-11-28T12:17:14.323Z,5.08
2022-11-28T12:21:05.904Z,5.13
2022-11-28T12:24:58.735Z,5.27
2022-11-28T12:28:33.905Z,5.20
2022-11-28T12:32:04.489Z,5.21
2022-11-28T12:35:42.226Z,5.20
2022-11-28T12:39:28.970Z,5.13
2022-11-28T12:43:11.620Z,5.02
2022-11-28T12:46:42.349Z,5.00
2022-11-28T12:50:27.991Z,5.01
2022-11-28T12:58:43.485Z,4.98
2022-11-28T13:02:39.240Z,5.09
2022-11-28T13:06:25.450Z,5.01
2022-11-28T13:10:27.332Z,4.96
2022-11-28T13:14:00.032Z,5.07
2022-11-28T13:17:48.185Z,4.99
2022-11-28T13:25:20.776Z,4.99
2022-11-28T13:29:20.186Z,5.02
2022-11-28T13:32:44.140Z,4.93
2022-11-28T13:40:22.866Z,4.96
2022-11-28T13:44:15.879Z,4.81
2022-11-28T13:47:53.327Z,4.80
2022-11-28T13:55:54.843Z,4.86
2022-11-28T13:59:25.391Z,4.63
2022-11-28T14:03:08.178Z,4.70
2022-11-28T14:07:18.915Z,4.50
2022-11-28T14:51:05.809Z,3.43
2022-11-28T14:54:45.650Z,3.27
2022-11-28T14:58:46.532Z,3.09
2022-11-28T15:02:49.953Z,3.00
2022-11-28T15:18:22.558Z,2.59
2022-11-28T15:21:47.091Z,2.40
2022-11-28T15:25:27.330Z,2.25
2022-11-28T15:29:09.497Z,2.14
2022-11-28T15:32:30.795Z,2.06
2022-11-28T15:36:03.612Z,2.04
2022-11-28T15:52:22.941Z,1.73
2022-11-28T15:55:27.825Z,1.67
2022-11-28T15:59:02.964Z,1.66
2022-11-28T16:02:27.172Z,1.59
2022-11-28T16:05:49.369Z,1.52
2022-11-28T16:09:17.968Z,1.48
2022-11-28T16:13:00.822Z,1.35
2022-11-28T16:16:39.182Z,1.34
2022-11-28T16:19:58.136Z,1.52
2022-11-28T16:23:38.244Z,1.59
2022-11-28T16:26:56.197Z,1.64
2022-11-28T16:30:40.935Z,1.66
2022-11-28T16:34:26.495Z,1.55
2022-11-28T16:38:05.367Z,1.52
2022-11-28T16:41:22.873Z,1.43
2022-11-28T16:45:15.887Z,1.31
2022-11-28T16:48:32.701Z,1.24
2022-11-28T16:51:40.139Z,1.19
2022-11-28T16:54:58.569Z,1.02
2022-11-28T16:58:26.327Z,0.99
2022-11-28T17:01:45.605Z,1.01
2022-11-28T17:04:50.537Z,0.98
2022-11-28T17:08:16.878Z,0.87
2022-11-28T17:12:04.352Z,0.82
2022-11-28T17:15:48.635Z,0.85
2022-11-28T17:19:31.965Z,0.76
2022-11-28T17:22:56.764Z,0.65
2022-11-28T17:26:28.232Z,0.65
2022-11-28T17:29:51.113Z,0.54
2022-11-28T17:33:39.452Z,0.48
2022-11-28T17:37:19.032Z,0.44
2022-11-28T17:40:44.848Z,0.41
2022-11-28T17:43:47.929Z,0.49
2022-11-28T17:47:00.726Z,0.47
2022-11-28T17:50:07.037Z,0.44
2022-11-28T17:53:32.065Z,0.41
2022-11-28T17:56:36.859Z,0.37
2022-11-28T17:59:44.705Z,0.24
2022-11-28T18:02:49.544Z,0.22
2022-11-28T18:06:17.513Z,0.13
2022-11-28T18:09:20.569Z,0.10
2022-11-28T18:13:04.786Z,0.09
2022-11-28T18:16:31.157Z,0.00
2022-11-28T18:19:37.311Z,-0.08
2022-11-28T18:22:39.851Z,-0.10
2022-11-28T18:25:47.728Z,-0.11
2022-11-28T18:29:11.399Z,-0.12
2022-11-28T18:32:16.598Z,-0.21
2022-11-28T18:35:24.559Z,-0.23
2022-11-28T18:39:00.131Z,-0.21
2022-11-28T18:42:05.048Z,-0.24
2022-11-28T18:45:16.695Z,-0.28
2022-11-28T18:48:24.470Z,-0.30
2022-11-28T18:51:32.984Z,-0.30
2022-11-28T18:54:39.686Z,-0.28
2022-11-28T18:57:42.659Z,-0.31
2022-11-28T19:01:31.335Z,-0.24
2022-11-28T19:04:47.131Z,-0.28
2022-11-28T19:07:59.310Z,-0.20
2022-11-28T19:11:22.208Z,-0.21
2022-11-28T19:14:57.327Z,-0.24
2022-11-28T19:18:37.267Z,-0.18
2022-11-28T19:22:24.764Z,-0.16
2022-11-28T19:25:29.224Z,-0.17
2022-11-28T19:28:40.031Z,-0.12
2022-11-28T19:31:50.951Z,-0.16
2022-11-28T19:35:26.130Z,-0.19
2022-11-28T19:38:32.697Z,-0.23
2022-11-28T19:42:17.977Z,-0.25
2022-11-28T19:45:42.807Z,-0.18
2022-11-28T19:49:29.720Z,-0.11
2022-11-28T19:53:07.456Z,0.02
2022-11-28T19:56:52.418Z,0.10
2022-11-28T20:00:16.909Z,0.17
2022-11-28T20:04:01.001Z,0.20
2022-11-28T20:07:44.290Z,0.17
2022-11-28T20:11:10.175Z,0.15
2022-11-28T20:14:20.259Z,0.12
2022-11-28T20:18:10.303Z,0.04
2022-11-28T20:21:34.526Z,-0.03
2022-11-28T20:24:39.485Z,-0.10
2022-11-28T20:27:46.662Z,-0.13
2022-11-28T20:30:50.341Z,-0.19
2022-11-28T20:33:57.709Z,-0.27
2022-11-28T20:37:13.243Z,-0.25
2022-11-28T20:40:33.634Z,-0.35
2022-11-28T20:43:54.139Z,-0.43
2022-11-28T20:47:27.546Z,-0.35
2022-11-28T20:50:47.099Z,-0.58
2022-11-28T20:54:13.230Z,-0.63
2022-11-28T20:57:30.196Z,-0.67
2022-11-28T21:00:56.955Z,-0.61
2022-11-28T21:04:29.860Z,-0.58
2022-11-28T21:08:08.128Z,-0.43
2022-11-28T21:11:55.845Z,-0.33
2022-11-28T21:14:44.983Z,-0.28
2022-11-28T21:18:14.367Z,-0.19
2022-11-28T21:21:20.686Z,-0.14
2022-11-28T21:24:33.509Z,0.01
2022-11-28T21:27:57.385Z,0.11
2022-11-28T21:31:44.195Z,0.23
2022-11-28T21:34:51.966Z,0.25
2022-11-28T21:38:35.941Z,0.41
2022-11-28T21:42:08.117Z,0.27
2022-11-28T21:45:42.358Z,0.21
2022-11-28T21:49:09.434Z,0.21
2022-11-28T21:52:34.206Z,0.34
2022-11-28T21:55:51.095Z,0.41
2022-11-28T21:59:33.891Z,0.62
2022-11-28T22:06:32.214Z,0.74
2022-11-28T22:09:57.420Z,0.72
2022-11-28T22:13:20.388Z,0.67
2022-11-28T22:16:36.863Z,0.70
2022-11-28T22:19:51.961Z,0.74
2022-11-28T22:23:41.464Z,0.79
2022-11-28T22:27:04.936Z,0.81
2022-11-28T22:30:38.904Z,0.82
2022-11-28T22:34:13.625Z,0.69
2022-11-28T22:37:39.508Z,0.79
2022-11-28T22:41:08.317Z,0.86
2022-11-28T22:44:25.325Z,0.88
2022-11-28T22:47:47.292Z,0.83
2022-11-28T22:51:23.920Z,0.91
2022-11-28T22:54:44.071Z,0.87
2022-11-28T22:58:01.686Z,0.96
2022-11-28T23:01:57.955Z,0.93
2022-11-28T23:05:19.681Z,0.99
2022-11-28T23:08:37.535Z,1.02
2022-11-28T23:12:08.764Z,0.93
2022-11-28T23:15:16.195Z,0.93
2022-11-28T23:18:33.399Z,0.98
2022-11-28T23:22:03.521Z,0.99
2022-11-28T23:25:28.152Z,1.03
2022-11-28T23:28:45.492Z,0.97
2022-11-28T23:32:13.359Z,0.94
2022-11-28T23:35:58.098Z,0.91
2022-11-28T23:39:19.541Z,0.86
2022-11-28T23:43:06.476Z,1.02
2022-11-28T23:46:30.687Z,0.92
2022-11-28T23:50:13.891Z,0.87
2022-11-28T23:53:31.326Z,0.91
2022-11-28T23:56:48.439Z,0.75
